createdAt,value
2023-01-10T00:00:04.770Z,0
2023-01-10T00:01:04.593Z,0
2023-01-10T00:02:04.806Z,0
2023-01-10T00:03:04.561Z,0
2023-01-10T00:04:04.505Z,0
2023-01-10T00:05:05.100Z,0
2023-01-10T00:06:04.719Z,0
2023-01-10T00:07:04.469Z,0
2023-01-10T00:08:04.697Z,0
2023-01-10T00:09:04.657Z,0
2023-01-10T00:10:04.674Z,0
2023-01-10T00:11:04.365Z,0
2023-01-10T00:12:04.360Z,0
2023-01-10T00:13:04.600Z,0
2023-01-10T00:14:04.081Z,0
2023-01-10T00:15:04.328Z,0
2023-01-10T00:16:04.660Z,0
2023-01-10T00:17:04.458Z,0
2023-01-10T00:18:04.520Z,0
2023-01-10T00:19:03.965Z,0
2023-01-10T00:20:04.268Z,0
2023-01-10T00:21:04.273Z,0
2023-01-10T00:22:04.175Z,0
2023-01-10T00:23:04.200Z,0
2023-01-10T00:24:04.411Z,0
2023-01-10T00:25:04.401Z,0
2023-01-10T00:26:04.100Z,0
2023-01-10T00:27:04.169Z,0
2023-01-10T00:28:03.827Z,0
2023-01-10T00:29:03.821Z,0
2023-01-10T00:30:03.560Z,0
2023-01-10T00:31:04.488Z,0
2023-01-10T00:32:04.261Z,0
2023-01-10T00:33:04.300Z,0
2023-01-10T00:34:04.232Z,0
2023-01-10T00:35:03.694Z,0
2023-01-10T00:36:04.202Z,0
2023-01-10T00:37:04.005Z,0
2023-01-10T00:38:03.895Z,0
2023-01-10T00:39:03.636Z,0
2023-01-10T00:40:04.139Z,0
2023-01-10T00:41:03.891Z,0
2023-01-10T00:42:03.875Z,0
2023-01-10T00:43:03.823Z,0
2023-01-10T00:44:03.849Z,0
2023-01-10T00:45:03.772Z,0
2023-01-10T00:46:03.794Z,0
2023-01-10T00:47:03.545Z,0
2023-01-10T00:48:03.757Z,0
2023-01-10T00:49:03.758Z,0
2023-01-10T00:50:04.014Z,0
2023-01-10T00:51:03.688Z,0
2023-01-10T00:52:03.925Z,0
2023-01-10T00:53:03.717Z,0
2023-01-10T00:54:03.872Z,0
2023-01-10T00:55:03.881Z,0
2023-01-10T00:56:03.585Z,0
2023-01-10T00:57:03.321Z,0
2023-01-10T00:58:03.298Z,0
2023-01-10T00:59:03.280Z,0
2023-01-10T01:00:03.564Z,0
2023-01-10T01:01:04.037Z,0
2023-01-10T01:02:03.874Z,0
2023-01-10T01:03:03.607Z,0
2023-01-10T01:04:03.206Z,0
2023-01-10T01:05:03.752Z,0
2023-01-10T01:06:03.424Z,0
2023-01-10T01:07:04.610Z,0
2023-01-10T01:08:03.376Z,0
2023-01-10T01:09:03.442Z,0
2023-01-10T01:10:03.476Z,0
2023-01-10T01:11:03.586Z,0
2023-01-10T01:12:02.801Z,0
2023-01-10T01:13:03.318Z,0
2023-01-10T01:14:03.295Z,0
2023-01-10T01:15:03.266Z,0
2023-01-10T01:16:03.519Z,0
2023-01-10T01:17:02.727Z,0
2023-01-10T01:18:02.979Z,0
2023-01-10T01:19:03.197Z,0
2023-01-10T01:20:03.235Z,0
2023-01-10T01:21:03.497Z,0
2023-01-10T01:22:03.140Z,0
2023-01-10T01:23:03.397Z,0
2023-01-10T01:24:03.116Z,0
2023-01-10T01:25:02.916Z,0
2023-01-10T01:26:02.824Z,0
2023-01-10T01:27:02.801Z,0
2023-01-10T01:28:03.295Z,0
2023-01-10T01:29:03.008Z,0
2023-01-10T01:30:03.012Z,0
2023-01-10T01:31:03.677Z,0
2023-01-10T01:32:03.109Z,0
2023-01-10T01:33:03.149Z,0
2023-01-10T01:34:34.997Z,0
2023-01-10T01:35:03.182Z,0
2023-01-10T01:36:02.909Z,0
2023-01-10T01:37:02.661Z,0
2023-01-10T01:38:03.122Z,0
2023-01-10T01:39:02.834Z,0
2023-01-10T01:40:03.095Z,0
2023-01-10T01:41:02.874Z,0
2023-01-10T01:42:02.907Z,0
2023-01-10T01:43:03.229Z,0
2023-01-10T01:44:03.008Z,0
2023-01-10T01:45:02.736Z,0
2023-01-10T01:46:02.635Z,0
2023-01-10T01:47:02.961Z,0
2023-01-10T01:48:02.740Z,0
2023-01-10T01:49:02.657Z,0
2023-01-10T01:50:02.682Z,0
2023-01-10T01:51:02.909Z,0
2023-01-10T01:52:02.344Z,0
2023-01-10T01:53:02.921Z,0
2023-01-10T01:54:02.593Z,0
2023-01-10T01:55:02.706Z,0
2023-01-10T01:56:02.567Z,0
2023-01-10T01:57:02.855Z,0
2023-01-10T01:58:02.495Z,0
2023-01-10T01:59:02.234Z,0
2023-01-10T02:00:02.594Z,0
2023-01-10T02:01:02.991Z,0
2023-01-10T02:02:02.891Z,0
2023-01-10T02:03:12.392Z,0
2023-01-10T02:04:02.479Z,0
2023-01-10T02:05:01.646Z,0
2023-01-10T02:06:02.637Z,0
2023-01-10T02:07:02.599Z,0
2023-01-10T02:08:02.416Z,0
2023-01-10T02:09:02.627Z,0
2023-01-10T02:10:02.023Z,0
2023-01-10T02:11:02.533Z,0
2023-01-10T02:12:02.248Z,0
2023-01-10T02:13:02.625Z,0
2023-01-10T02:14:02.222Z,0
2023-01-10T02:15:02.217Z,0
2023-01-10T02:16:02.431Z,0
2023-01-10T02:17:02.424Z,0
2023-01-10T02:18:02.183Z,0
2023-01-10T02:19:02.169Z,0
2023-01-10T02:20:01.895Z,0
2023-01-10T02:21:02.343Z,0
2023-01-10T02:22:02.335Z,0
2023-01-10T02:23:02.077Z,0
2023-01-10T02:24:02.061Z,0
2023-01-10T02:25:02.065Z,0
2023-01-10T02:26:31.505Z,0
2023-01-10T02:27:01.751Z,0
2023-01-10T02:28:01.740Z,0
2023-01-10T02:29:02.295Z,0
2023-01-10T02:30:01.938Z,0
2023-01-10T02:31:01.936Z,0
2023-01-10T02:32:01.918Z,0
2023-01-10T02:33:13.922Z,0
2023-01-10T02:34:01.857Z,0
2023-01-10T02:35:01.860Z,0
2023-01-10T02:36:01.863Z,0
2023-01-10T02:37:02.073Z,0
2023-01-10T02:38:02.038Z,0
2023-01-10T02:39:01.533Z,0
2023-01-10T02:40:02.019Z,0
2023-01-10T02:41:01.803Z,0
2023-01-10T02:42:01.516Z,0
2023-01-10T02:43:01.458Z,0
2023-01-10T02:44:01.957Z,0
2023-01-10T02:45:02.016Z,0
2023-01-10T02:46:01.144Z,0
2023-01-10T02:47:01.461Z,0
2023-01-10T02:48:01.657Z,0
2023-01-10T02:49:01.890Z,0
2023-01-10T02:50:01.662Z,0
2023-01-10T02:51:01.831Z,0
2023-01-10T02:52:01.558Z,0
2023-01-10T02:53:01.556Z,0
2023-01-10T02:54:01.767Z,0
2023-01-10T02:55:01.528Z,0
2023-01-10T02:56:01.231Z,0
2023-01-10T02:57:01.768Z,0
2023-01-10T02:58:00.944Z,0
2023-01-10T02:59:01.173Z,0
2023-01-10T03:00:01.695Z,0
2023-01-10T03:01:01.973Z,0
2023-01-10T03:02:01.527Z,0
2023-01-10T03:03:01.634Z,0
2023-01-10T03:04:01.593Z,0
2023-01-10T03:05:01.451Z,0
2023-01-10T03:06:01.563Z,0
2023-01-10T03:07:01.612Z,0
2023-01-10T03:08:01.298Z,0
2023-01-10T03:09:01.276Z,0
2023-01-10T03:10:01.509Z,0
2023-01-10T03:11:01.217Z,0
2023-01-10T03:12:00.954Z,0
2023-01-10T03:13:01.496Z,0
2023-01-10T03:14:01.191Z,0
2023-01-10T03:15:00.891Z,0
2023-01-10T03:16:01.358Z,0
2023-01-10T03:17:02.391Z,0
2023-01-10T03:18:01.111Z,0
2023-01-10T03:19:01.101Z,0
2023-01-10T03:20:01.102Z,0
2023-01-10T03:21:01.307Z,0
2023-01-10T03:22:01.021Z,0
2023-01-10T03:23:00.767Z,0
2023-01-10T03:24:01.022Z,0
2023-01-10T03:25:00.745Z,0
2023-01-10T03:26:00.954Z,0
2023-01-10T03:27:00.945Z,0
2023-01-10T03:28:01.196Z,0
2023-01-10T03:29:01.207Z,0
2023-01-10T03:30:01.148Z,0
2023-01-10T03:31:00.446Z,0
2023-01-10T03:32:00.897Z,0
2023-01-10T03:33:01.160Z,0
2023-01-10T03:50:07.410Z,0
2023-01-10T03:51:06.613Z,0
2023-01-10T03:52:06.876Z,0
2023-01-10T03:53:06.845Z,0
2023-01-10T03:54:06.305Z,0
2023-01-10T03:55:06.711Z,0
2023-01-10T03:56:06.791Z,0
2023-01-10T03:57:09.534Z,0
2023-01-10T03:58:06.505Z,0
2023-01-10T03:59:06.749Z,0
2023-01-10T04:00:06.795Z,0
2023-01-10T04:01:07.554Z,0
2023-01-10T04:02:07.333Z,0
2023-01-10T04:03:06.403Z,0
2023-01-10T04:04:06.970Z,0
2023-01-10T04:05:06.342Z,0
2023-01-10T04:06:06.981Z,0
2023-01-10T04:07:06.839Z,0
2023-01-10T04:08:06.833Z,0
2023-01-10T04:09:06.527Z,0
2023-01-10T04:10:06.830Z,0
2023-01-10T04:11:06.500Z,0
2023-01-10T04:12:06.240Z,0
2023-01-10T04:13:06.490Z,0
2023-01-10T04:14:06.752Z,0
2023-01-10T04:15:06.196Z,0
2023-01-10T04:16:06.981Z,0
2023-01-10T04:17:06.648Z,0
2023-01-10T04:18:06.374Z,0
2023-01-10T04:19:06.649Z,0
2023-01-10T04:20:06.332Z,0
2023-01-10T04:21:06.325Z,0
2023-01-10T04:22:06.729Z,0
2023-01-10T04:23:06.297Z,0
2023-01-10T04:24:06.310Z,0
2023-01-10T04:25:06.241Z,0
2023-01-10T04:26:05.726Z,0
2023-01-10T04:27:06.498Z,0
2023-01-10T04:28:06.500Z,0
2023-01-10T04:29:06.671Z,0
2023-01-10T04:30:06.163Z,0
2023-01-10T04:31:06.410Z,0
2023-01-10T04:32:06.398Z,0
2023-01-10T04:33:06.655Z,0
2023-01-10T04:34:06.647Z,0
2023-01-10T04:35:06.056Z,0
2023-01-10T04:36:06.290Z,0
2023-01-10T04:37:05.783Z,0
2023-01-10T04:38:06.653Z,0
2023-01-10T04:39:06.531Z,0
2023-01-10T04:40:05.968Z,0
2023-01-10T04:41:06.235Z,0
2023-01-10T04:42:06.005Z,0
2023-01-10T04:43:06.452Z,0
2023-01-10T04:44:05.664Z,0
2023-01-10T04:45:06.165Z,0
2023-01-10T04:46:06.534Z,0
2023-01-10T04:47:06.367Z,0
2023-01-10T04:48:05.847Z,0
2023-01-10T04:49:05.804Z,0
2023-01-10T04:50:06.070Z,0
2023-01-10T04:51:05.778Z,0
2023-01-10T04:52:06.275Z,0
2023-01-10T04:53:06.017Z,0
2023-01-10T04:54:06.342Z,0
2023-01-10T04:55:06.011Z,0
2023-01-10T04:56:05.431Z,0
2023-01-10T04:57:05.935Z,0
2023-01-10T04:58:06.167Z,0
2023-01-10T04:59:05.895Z,0
2023-01-10T05:00:05.610Z,0
2023-01-10T05:01:06.050Z,0
2023-01-10T05:02:07.009Z,0
2023-01-10T05:03:07.048Z,0
2023-01-10T05:04:05.828Z,0
2023-01-10T05:05:06.039Z,0
2023-01-10T05:06:06.029Z,0
2023-01-10T05:07:06.032Z,0
2023-01-10T05:08:06.000Z,0
2023-01-10T05:09:05.745Z,0
2023-01-10T05:10:06.109Z,0
2023-01-10T05:11:05.687Z,0
2023-01-10T05:12:05.684Z,0
2023-01-10T05:13:05.403Z,0
2023-01-10T05:14:05.618Z,0
2023-01-10T05:15:05.873Z,0
2023-01-10T05:16:05.117Z,0
2023-01-10T05:17:05.884Z,0
2023-01-10T05:18:05.343Z,0
2023-01-10T05:19:05.554Z,0
2023-01-10T05:20:05.546Z,0
2023-01-10T05:21:05.794Z,0
2023-01-10T05:22:05.295Z,0
2023-01-10T05:23:04.977Z,0
2023-01-10T05:24:05.772Z,0
2023-01-10T05:25:05.207Z,0
2023-01-10T05:26:05.802Z,0
2023-01-10T05:27:04.899Z,0
2023-01-10T05:28:05.737Z,0
2023-01-10T05:29:04.851Z,0
2023-01-10T05:30:05.113Z,0
2023-01-10T05:31:05.619Z,0
2023-01-10T05:32:05.325Z,0
2023-01-10T05:33:05.053Z,0
2023-01-10T05:34:05.038Z,0
2023-01-10T05:35:05.286Z,0
2023-01-10T05:36:05.255Z,0
2023-01-10T05:37:05.244Z,0
2023-01-10T05:38:05.484Z,0
2023-01-10T05:39:04.957Z,0
2023-01-10T05:40:05.460Z,0
2023-01-10T05:41:06.037Z,0
2023-01-10T05:42:05.547Z,0
2023-01-10T05:43:04.865Z,0
2023-01-10T05:44:05.148Z,0
2023-01-10T05:45:05.091Z,0
2023-01-10T05:46:05.444Z,0
2023-01-10T05:47:05.062Z,0
2023-01-10T05:48:05.066Z,0
2023-01-10T05:49:05.046Z,0
2023-01-10T05:50:04.749Z,0
2023-01-10T05:51:04.975Z,0
2023-01-10T05:52:05.219Z,0
2023-01-10T05:53:05.211Z,0
2023-01-10T05:54:04.938Z,0
2023-01-10T05:55:05.265Z,0
2023-01-10T05:56:04.707Z,0
2023-01-10T05:57:05.129Z,0
2023-01-10T05:58:05.242Z,0
2023-01-10T05:59:33.972Z,0
2023-01-10T06:00:07.339Z,0
2023-01-10T06:01:05.340Z,0
2023-01-10T06:02:05.015Z,0
2023-01-10T06:03:05.235Z,0
2023-01-10T06:04:05.032Z,0
2023-01-10T06:05:04.563Z,0
2023-01-10T06:06:04.511Z,0
2023-01-10T06:07:04.956Z,0
2023-01-10T06:08:05.313Z,0
2023-01-10T06:09:05.555Z,0
2023-01-10T06:10:05.071Z,0
2023-01-10T06:11:05.534Z,0
2023-01-10T06:12:05.288Z,0
2023-01-10T06:13:05.739Z,0
2023-01-10T06:14:05.916Z,0
2023-01-10T06:15:05.471Z,0
2023-01-10T06:16:05.648Z,0
2023-01-10T06:17:05.152Z,0
2023-01-10T06:18:05.390Z,0
2023-01-10T06:19:05.138Z,0
2023-01-10T06:20:05.124Z,0
2023-01-10T06:21:05.097Z,0
2023-01-10T06:22:05.097Z,0
2023-01-10T06:23:05.309Z,0
2023-01-10T06:24:05.552Z,0
2023-01-10T06:25:07.232Z,0
2023-01-10T06:26:04.991Z,0
2023-01-10T06:27:04.980Z,0
2023-01-10T06:28:05.047Z,0
2023-01-10T06:29:05.499Z,0
2023-01-10T06:30:06.362Z,0
2023-01-10T06:31:06.165Z,0
2023-01-10T06:32:06.138Z,0
2023-01-10T06:33:05.886Z,0
2023-01-10T06:34:05.635Z,0
2023-01-10T06:35:05.836Z,0
2023-01-10T06:36:06.097Z,0
2023-01-10T06:37:05.543Z,0
2023-01-10T06:38:05.826Z,0
2023-01-10T06:39:05.771Z,0
2023-01-10T06:40:05.756Z,0
2023-01-10T06:41:05.470Z,0
2023-01-10T06:42:05.206Z,0
2023-01-10T06:43:05.955Z,0
2023-01-10T06:44:05.941Z,0
2023-01-10T06:45:05.668Z,0
2023-01-10T06:46:06.290Z,0
2023-01-10T06:47:05.380Z,0
2023-01-10T06:48:05.861Z,0
2023-01-10T06:49:05.597Z,0
2023-01-10T06:50:05.578Z,0
2023-01-10T06:51:05.847Z,0
2023-01-10T06:52:06.579Z,0
2023-01-10T06:53:06.067Z,0
2023-01-10T06:54:05.791Z,0
2023-01-10T06:55:06.041Z,0
2023-01-10T06:56:06.027Z,0
2023-01-10T06:57:06.252Z,0
2023-01-10T06:58:06.484Z,0
2023-01-10T06:59:08.401Z,0
2023-01-10T07:00:06.218Z,0
2023-01-10T07:01:06.927Z,0
2023-01-10T07:02:07.386Z,0
2023-01-10T07:03:06.393Z,0
2023-01-10T07:04:06.865Z,0
2023-01-10T07:05:06.103Z,0
2023-01-10T07:06:05.849Z,0
2023-01-10T07:07:06.059Z,0
2023-01-10T07:08:05.962Z,0
2023-01-10T07:09:06.315Z,0
2023-01-10T07:10:05.744Z,0
2023-01-10T07:11:06.014Z,0
2023-01-10T07:12:05.762Z,0
2023-01-10T07:13:05.953Z,0
2023-01-10T07:14:06.660Z,0
2023-01-10T07:15:06.598Z,0
2023-01-10T07:16:07.331Z,0
2023-01-10T07:17:07.059Z,0
2023-01-10T07:18:07.222Z,0
2023-01-10T07:19:06.797Z,0
2023-01-10T07:20:06.765Z,0
2023-01-10T07:21:06.800Z,0
2023-01-10T07:22:06.474Z,0
2023-01-10T07:23:06.443Z,0
2023-01-10T07:24:09.373Z,0
2023-01-10T07:25:06.672Z,0
2023-01-10T07:26:06.207Z,0
2023-01-10T07:27:06.940Z,0
2023-01-10T07:28:06.651Z,5
2023-01-10T07:29:06.619Z,5
2023-01-10T07:30:06.861Z,5
2023-01-10T07:31:07.153Z,5
2023-01-10T07:32:06.794Z,5
2023-01-10T07:33:06.285Z,10
2023-01-10T07:34:06.989Z,10
2023-01-10T07:35:06.307Z,15
2023-01-10T07:36:06.225Z,15
2023-01-10T07:37:06.700Z,15
2023-01-10T07:38:05.920Z,15
2023-01-10T07:39:06.174Z,15
2023-01-10T07:40:06.654Z,15
2023-01-10T07:41:06.683Z,15
2023-01-10T07:42:06.813Z,15
2023-01-10T07:43:06.089Z,15
2023-01-10T07:44:06.367Z,15
2023-01-10T07:45:06.127Z,15
2023-01-10T07:46:06.355Z,15
2023-01-10T07:47:06.532Z,15
2023-01-10T07:48:06.532Z,15
2023-01-10T07:49:06.018Z,15
2023-01-10T07:50:06.639Z,15
2023-01-10T07:51:06.234Z,20
2023-01-10T07:52:06.446Z,20
2023-01-10T07:53:06.519Z,25
2023-01-10T07:54:06.418Z,25
2023-01-10T07:55:05.935Z,30
2023-01-10T07:56:06.156Z,30
2023-01-10T07:57:05.881Z,25
2023-01-10T07:58:06.125Z,20
2023-01-10T07:59:06.153Z,20
2023-01-10T08:00:06.089Z,20
2023-01-10T08:01:06.763Z,20
2023-01-10T08:02:05.235Z,25
2023-01-10T08:03:07.168Z,25
2023-01-10T08:04:05.996Z,30
2023-01-10T08:05:05.986Z,25
2023-01-10T08:06:06.359Z,20
2023-01-10T08:07:06.169Z,20
2023-01-10T08:08:05.385Z,20
2023-01-10T08:09:05.668Z,25
2023-01-10T08:10:05.882Z,30
2023-01-10T08:11:05.609Z,30
2023-01-10T08:12:05.837Z,30
2023-01-10T08:13:24.415Z,30
2023-01-10T08:14:05.831Z,30
2023-01-10T08:15:05.516Z,30
2023-01-10T08:16:05.738Z,35
2023-01-10T08:17:05.488Z,35
2023-01-10T08:18:08.638Z,40
2023-01-10T08:19:05.728Z,35
2023-01-10T08:20:05.944Z,35
2023-01-10T08:21:05.447Z,35
2023-01-10T08:22:06.079Z,30
2023-01-10T08:23:05.660Z,35
2023-01-10T08:24:05.657Z,35
2023-01-10T08:25:05.622Z,35
2023-01-10T08:26:05.610Z,40
2023-01-10T08:27:05.566Z,40
2023-01-10T08:28:05.307Z,40
2023-01-10T08:29:05.532Z,40
2023-01-10T08:30:05.503Z,40
2023-01-10T08:31:05.850Z,40
2023-01-10T08:32:05.276Z,40
2023-01-10T08:33:05.479Z,40
2023-01-10T08:34:05.455Z,40
2023-01-10T08:35:05.442Z,40
2023-01-10T08:36:05.139Z,40
2023-01-10T08:37:05.392Z,40
2023-01-10T08:38:05.801Z,40
2023-01-10T08:39:05.667Z,40
2023-01-10T08:40:05.109Z,45
2023-01-10T08:41:05.349Z,45
2023-01-10T08:42:05.317Z,50
2023-01-10T08:43:05.562Z,50
2023-01-10T08:44:05.545Z,50
2023-01-10T08:45:07.364Z,50
2023-01-10T08:46:05.420Z,50
2023-01-10T08:47:05.103Z,55
2023-01-10T08:48:05.541Z,55
2023-01-10T08:49:05.169Z,55
2023-01-10T08:50:05.967Z,55
2023-01-10T08:51:05.414Z,55
2023-01-10T08:52:04.928Z,55
2023-01-10T08:53:05.131Z,60
2023-01-10T08:54:05.524Z,60
2023-01-10T08:55:04.839Z,60
2023-01-10T08:56:07.884Z,55
2023-01-10T08:57:05.044Z,60
2023-01-10T08:58:05.054Z,60
2023-01-10T08:59:05.260Z,60
2023-01-10T09:00:05.005Z,60
2023-01-10T09:01:05.176Z,60
2023-01-10T09:02:04.973Z,60
2023-01-10T09:03:05.663Z,60
2023-01-10T09:04:04.921Z,55
2023-01-10T09:05:04.991Z,55
2023-01-10T09:06:05.183Z,60
2023-01-10T09:07:04.630Z,60
2023-01-10T09:08:04.915Z,60
2023-01-10T09:09:05.100Z,60
2023-01-10T09:10:05.270Z,60
2023-01-10T09:11:05.080Z,60
2023-01-10T09:12:04.882Z,65
2023-01-10T09:13:04.791Z,65
2023-01-10T09:14:04.763Z,65
2023-01-10T09:15:04.990Z,65
2023-01-10T09:16:05.125Z,70
2023-01-10T09:17:04.179Z,75
2023-01-10T09:18:04.454Z,75
2023-01-10T09:19:04.490Z,80
2023-01-10T09:20:04.926Z,85
2023-01-10T09:21:05.766Z,75
2023-01-10T09:22:04.599Z,50
2023-01-10T09:23:04.601Z,40
2023-01-10T09:24:04.818Z,45
2023-01-10T09:25:04.043Z,45
2023-01-10T09:26:04.923Z,55
2023-01-10T09:27:04.276Z,60
2023-01-10T09:28:04.516Z,70
2023-01-10T09:29:04.239Z,65
2023-01-10T09:30:04.753Z,65
2023-01-10T09:31:04.490Z,60
2023-01-10T09:32:04.198Z,60
2023-01-10T09:33:04.675Z,60
2023-01-10T09:34:04.407Z,65
2023-01-10T09:35:04.129Z,70
2023-01-10T09:36:04.105Z,75
2023-01-10T09:37:04.341Z,75
2023-01-10T09:38:04.583Z,75
2023-01-10T09:39:04.049Z,75
2023-01-10T09:40:04.297Z,80
2023-01-10T09:41:04.303Z,80
2023-01-10T09:42:04.703Z,80
2023-01-10T09:43:04.350Z,80
2023-01-10T09:44:05.893Z,75
2023-01-10T09:45:03.698Z,70
2023-01-10T09:46:04.213Z,65
2023-01-10T09:47:22.706Z,75
2023-01-10T09:48:04.160Z,85
2023-01-10T09:49:04.133Z,85
2023-01-10T09:50:04.119Z,90
2023-01-10T09:51:03.602Z,90
2023-01-10T09:52:05.948Z,90
2023-01-10T09:53:03.810Z,95
2023-01-10T09:54:18.451Z,95
2023-01-10T09:55:04.057Z,95
2023-01-10T09:56:04.077Z,90
2023-01-10T09:57:04.049Z,90
2023-01-10T09:58:04.443Z,100
2023-01-10T09:59:03.976Z,100
2023-01-10T10:00:03.741Z,100
2023-01-10T10:01:04.121Z,100
2023-01-10T10:02:03.923Z,95
2023-01-10T10:03:04.704Z,90
2023-01-10T10:04:03.974Z,90
2023-01-10T10:05:04.160Z,90
2023-01-10T10:06:19.367Z,85
2023-01-10T10:07:03.717Z,80
2023-01-10T10:08:04.169Z,80
2023-01-10T10:09:07.249Z,75
2023-01-10T10:10:04.165Z,75
2023-01-10T10:11:03.913Z,75
2023-01-10T10:12:03.855Z,75
2023-01-10T10:13:03.877Z,75
2023-01-10T10:14:04.369Z,70
2023-01-10T10:15:04.057Z,70
2023-01-10T10:16:07.146Z,70
2023-01-10T10:17:04.074Z,70
2023-01-10T10:18:03.988Z,70
2023-01-10T10:19:03.979Z,70
2023-01-10T10:20:03.769Z,75
2023-01-10T10:21:03.163Z,80
2023-01-10T10:22:03.926Z,85
2023-01-10T10:23:03.718Z,90
2023-01-10T10:24:03.142Z,95
2023-01-10T10:25:03.194Z,95
2023-01-10T10:26:04.765Z,95
2023-01-10T10:27:03.578Z,90
2023-01-10T10:28:03.563Z,90
2023-01-10T10:29:05.772Z,90
2023-01-10T10:30:03.917Z,95
2023-01-10T10:31:03.299Z,95
2023-01-10T10:32:03.265Z,100
2023-01-10T10:33:03.458Z,105
2023-01-10T10:34:03.480Z,110
2023-01-10T10:35:03.236Z,115
2023-01-10T10:36:03.182Z,105
2023-01-10T10:37:03.445Z,100
2023-01-10T10:38:03.200Z,95
2023-01-10T10:39:03.446Z,100
2023-01-10T10:40:03.366Z,105
2023-01-10T10:41:03.361Z,110
2023-01-10T10:42:03.331Z,110
2023-01-10T10:43:02.818Z,110
2023-01-10T10:44:03.291Z,105
2023-01-10T10:45:03.377Z,105
2023-01-10T10:46:04.125Z,105
2023-01-10T10:47:03.003Z,105
2023-01-10T10:48:03.247Z,105
2023-01-10T10:49:02.978Z,110
2023-01-10T10:50:02.982Z,115
2023-01-10T10:51:03.491Z,120
2023-01-10T10:52:03.193Z,120
2023-01-10T10:53:02.950Z,115
2023-01-10T10:54:03.207Z,115
2023-01-10T10:55:03.508Z,115
2023-01-10T10:56:03.228Z,120
2023-01-10T10:57:03.109Z,120
2023-01-10T10:58:10.025Z,120
2023-01-10T10:59:03.350Z,125
2023-01-10T11:00:03.285Z,125
2023-01-10T11:01:03.588Z,120
2023-01-10T11:02:04.421Z,115
2023-01-10T11:03:03.259Z,115
2023-01-10T11:04:02.465Z,120
2023-01-10T11:05:03.086Z,120
2023-01-10T11:06:02.971Z,120
2023-01-10T11:07:02.664Z,125
2023-01-10T11:08:02.932Z,130
2023-01-10T11:09:02.628Z,130
2023-01-10T11:10:02.932Z,125
2023-01-10T11:11:03.105Z,125
2023-01-10T11:12:02.601Z,115
2023-01-10T11:13:02.557Z,115
2023-01-10T11:14:03.117Z,105
2023-01-10T11:15:02.801Z,100
2023-01-10T11:16:06.027Z,90
2023-01-10T11:17:02.488Z,85
2023-01-10T11:18:03.134Z,80
2023-01-10T11:19:02.746Z,80
2023-01-10T11:20:02.712Z,85
2023-01-10T11:21:02.972Z,90
2023-01-10T11:22:02.917Z,95
2023-01-10T11:23:02.693Z,100
2023-01-10T11:24:02.397Z,105
2023-01-10T11:25:02.867Z,110
2023-01-10T11:26:02.604Z,110
2023-01-10T11:27:02.869Z,115
2023-01-10T11:28:02.834Z,125
2023-01-10T11:29:02.541Z,130
2023-01-10T11:30:02.314Z,135
2023-01-10T11:31:02.525Z,135
2023-01-10T11:32:03.217Z,135
2023-01-10T11:33:02.806Z,140
2023-01-10T11:34:02.911Z,140
2023-01-10T11:35:02.214Z,140
2023-01-10T11:36:01.926Z,135
2023-01-10T11:37:02.434Z,135
2023-01-10T11:38:02.422Z,135
2023-01-10T11:39:02.649Z,130
2023-01-10T11:40:02.622Z,130
2023-01-10T11:41:02.141Z,120
2023-01-10T11:42:02.349Z,115
2023-01-10T11:43:04.576Z,110
2023-01-10T11:44:02.300Z,110
2023-01-10T11:45:02.086Z,105
2023-01-10T11:46:02.595Z,100
2023-01-10T11:47:02.102Z,100
2023-01-10T11:48:02.319Z,100
2023-01-10T11:49:16.362Z,105
2023-01-10T11:50:02.253Z,105
2023-01-10T11:51:02.191Z,105
2023-01-10T11:52:01.977Z,100
2023-01-10T11:53:01.912Z,95
2023-01-10T11:54:01.915Z,90
2023-01-10T11:55:04.321Z,90
2023-01-10T11:56:02.368Z,90
2023-01-10T11:57:02.100Z,85
2023-01-10T11:58:02.099Z,75
2023-01-10T11:59:02.332Z,70
2023-01-10T12:00:02.304Z,65
2023-01-10T12:01:04.135Z,60
2023-01-10T12:02:02.705Z,55
2023-01-10T12:03:02.256Z,50
2023-01-10T12:04:02.015Z,45
2023-01-10T12:05:02.534Z,40
2023-01-10T12:06:02.034Z,45
2023-01-10T12:07:01.974Z,45
2023-01-10T12:08:01.931Z,40
2023-01-10T12:09:01.897Z,40
2023-01-10T12:10:01.919Z,45
2023-01-10T12:11:01.605Z,60
2023-01-10T12:12:02.110Z,65
2023-01-10T12:13:01.600Z,75
2023-01-10T12:14:01.816Z,70
2023-01-10T12:15:02.082Z,70
2023-01-10T12:16:01.514Z,75
2023-01-10T12:17:02.458Z,85
2023-01-10T12:18:02.010Z,90
2023-01-10T12:19:01.553Z,90
2023-01-10T12:20:02.010Z,85
2023-01-10T12:21:02.028Z,85
2023-01-10T12:22:02.022Z,90
2023-01-10T12:23:02.975Z,90
2023-01-10T12:24:01.671Z,90
2023-01-10T12:25:01.943Z,95
2023-01-10T12:26:19.071Z,100
2023-01-10T12:27:01.714Z,100
2023-01-10T12:28:01.608Z,95
2023-01-10T12:29:03.381Z,90
2023-01-10T12:30:01.803Z,95
2023-01-10T12:31:01.895Z,95
2023-01-10T12:32:01.273Z,100
2023-01-10T12:33:01.761Z,100
2023-01-10T12:34:01.499Z,100
2023-01-10T12:35:03.083Z,100
2023-01-10T12:36:01.502Z,95
2023-01-10T12:37:01.503Z,95
2023-01-10T12:38:01.195Z,100
2023-01-10T12:39:01.443Z,105
2023-01-10T12:40:01.649Z,105
2023-01-10T12:41:03.629Z,105
2023-01-10T12:42:01.418Z,110
2023-01-10T12:43:00.556Z,110
2023-01-10T12:44:01.306Z,105
2023-01-10T12:45:01.321Z,105
2023-01-10T12:46:12.918Z,100
2023-01-10T12:47:21.710Z,105
2023-01-10T12:48:01.551Z,105
2023-01-10T12:49:00.484Z,110
2023-01-10T12:50:00.975Z,110
2023-01-10T12:51:01.249Z,115
2023-01-10T12:52:01.524Z,110
2023-01-10T12:53:01.279Z,110
2023-01-10T12:54:01.590Z,100
2023-01-10T12:55:01.421Z,100
2023-01-10T12:56:00.920Z,100
2023-01-10T12:57:01.632Z,105
2023-01-10T12:58:01.166Z,105
2023-01-10T12:59:00.824Z,105
2023-01-10T13:00:01.080Z,110
2023-01-10T13:01:01.008Z,105
2023-01-10T13:02:01.702Z,105
2023-01-10T13:03:01.431Z,105
2023-01-10T13:04:01.249Z,105
2023-01-10T13:05:00.991Z,105
2023-01-10T13:06:00.979Z,105
2023-01-10T13:07:01.277Z,95
2023-01-10T13:08:00.447Z,90
2023-01-10T13:09:01.329Z,85
2023-01-10T13:10:01.181Z,80
2023-01-10T13:11:00.876Z,85
2023-01-10T13:12:00.898Z,85
2023-01-10T13:13:00.615Z,85
2023-01-10T13:14:01.565Z,85
2023-01-10T13:15:01.101Z,85
2023-01-10T13:16:01.075Z,85
2023-01-10T13:17:00.275Z,80
2023-01-10T13:18:00.539Z,75
2023-01-10T13:19:00.501Z,70
2023-01-10T13:20:00.210Z,70
2023-01-10T13:21:00.464Z,70
2023-01-10T13:22:00.699Z,75
2023-01-10T13:23:00.692Z,70
2023-01-10T13:24:00.687Z,60
2023-01-10T13:25:01.066Z,60
2023-01-10T13:26:00.928Z,65
2023-01-10T13:27:00.956Z,70
2023-01-10T13:28:00.649Z,60
2023-01-10T13:29:00.371Z,60
2023-01-10T13:30:00.431Z,75
2023-01-10T13:31:00.960Z,85
2023-01-10T13:32:00.220Z,85
2023-01-10T13:33:00.840Z,85
2023-01-10T13:34:00.349Z,80
2023-01-10T13:35:00.823Z,80
2023-01-10T13:36:00.745Z,75
2023-01-10T13:37:03.420Z,75
2023-01-10T13:38:00.190Z,75
2023-01-10T13:39:00.171Z,70
2023-01-10T13:40:00.184Z,65
2023-01-10T13:41:00.495Z,65
2023-01-10T13:42:00.664Z,65
2023-01-10T13:43:00.702Z,60
2023-01-10T13:44:00.656Z,55
2023-01-10T13:45:00.429Z,50
2023-01-10T13:46:00.928Z,50
2023-01-10T13:47:00.042Z,50
2023-01-10T13:48:00.574Z,50
2023-01-10T13:49:00.050Z,60
2023-01-10T13:50:00.021Z,65
2023-01-10T13:51:00.240Z,65
2023-01-10T13:51:59.960Z,65
2023-01-10T13:53:00.483Z,60
2023-01-10T13:54:00.223Z,65
2023-01-10T13:55:00.198Z,65
2023-01-10T13:56:00.466Z,55
2023-01-10T13:57:00.542Z,55
2023-01-10T13:58:00.140Z,50
2023-01-10T13:58:59.842Z,50
2023-01-10T14:00:00.094Z,50
2023-01-10T14:01:00.595Z,60
2023-01-10T14:02:01.194Z,60
2023-01-10T14:03:00.015Z,60
2023-01-10T14:04:00.396Z,55
2023-01-10T14:04:59.997Z,55
2023-01-10T14:05:59.719Z,55
2023-01-10T14:06:59.987Z,55
2023-01-10T14:08:00.005Z,55
2023-01-10T14:09:00.210Z,55
2023-01-10T14:09:59.948Z,55
2023-01-10T14:10:59.899Z,55
2023-01-10T14:11:59.667Z,60
2023-01-10T14:12:59.940Z,60
2023-01-10T14:14:00.119Z,55
2023-01-10T14:14:59.569Z,45
2023-01-10T14:16:00.236Z,40
2023-01-10T14:17:00.053Z,35
2023-01-10T14:17:59.791Z,35
2023-01-10T14:18:59.539Z,35
2023-01-10T14:19:59.507Z,30
2023-01-10T14:20:59.813Z,25
2023-01-10T14:21:59.759Z,25
2023-01-10T14:22:59.707Z,25
2023-01-10T14:23:59.685Z,25
2023-01-10T14:24:59.975Z,25
2023-01-10T14:25:59.513Z,20
2023-01-10T14:27:01.993Z,20
2023-01-10T14:27:59.878Z,20
2023-01-10T14:28:59.962Z,25
2023-01-10T14:29:59.619Z,25
2023-01-10T14:31:00.103Z,20
2023-01-10T14:31:59.024Z,20
2023-01-10T14:33:02.612Z,20
2023-01-10T14:33:59.511Z,20
2023-01-10T14:34:59.278Z,20
2023-01-10T14:35:59.735Z,25
2023-01-10T14:36:59.443Z,30
2023-01-10T14:37:59.453Z,30
2023-01-10T14:39:00.997Z,30
2023-01-10T14:39:59.177Z,30
2023-01-10T14:40:59.386Z,25
2023-01-10T14:41:58.879Z,25
2023-01-10T14:42:59.397Z,25